createdAt,value
2018-02-24T00:02:29.444Z,-0.70
2018-02-24T00:05:02.174Z,-0.60
2018-02-24T00:07:33.568Z,-0.60
2018-02-24T00:10:03.067Z,-0.60
2018-02-24T00:12:33.189Z,-0.60
2018-02-24T00:15:01.253Z,-0.60
2018-02-24T00:17:28.898Z,-0.60
2018-02-24T00:19:59.980Z,-0.60
2018-02-24T00:22:30.930Z,-0.50
2018-02-24T00:25:02.196Z,-0.60
2018-02-24T00:27:31.692Z,-0.70
2018-02-24T00:30:00.451Z,-0.70
2018-02-24T00:32:30.814Z,-0.60
2018-02-24T00:35:07.533Z,-0.60
2018-02-24T00:37:35.045Z,-0.70
2018-02-24T00:40:03.739Z,-0.70
2018-02-24T00:42:31.416Z,-0.60
2018-02-24T00:44:59.125Z,-0.60
2018-02-24T00:47:29.058Z,-0.60
2018-02-24T00:49:59.050Z,-0.60
2018-02-24T00:52:27.437Z,-0.70
2018-02-24T00:55:01.104Z,-0.70
2018-02-24T00:57:30.976Z,-0.60
2018-02-24T01:00:00.575Z,-0.70
2018-02-24T01:02:30.692Z,-0.80
2018-02-24T01:04:59.920Z,-0.70
2018-02-24T01:07:28.298Z,-0.80
2018-02-24T01:09:56.972Z,-0.80
2018-02-24T01:12:30.298Z,-0.70
2018-02-24T01:15:00.084Z,-0.60
2018-02-24T01:17:29.049Z,-0.80
2018-02-24T01:19:58.448Z,-0.70
2018-02-24T01:22:28.690Z,-0.70
2018-02-24T01:24:57.865Z,-0.90
2018-02-24T01:27:27.132Z,-1.10
2018-02-24T01:29:55.994Z,-1.00
2018-02-24T01:32:25.902Z,-0.90
2018-02-24T01:34:54.929Z,-0.90
2018-02-24T01:37:22.615Z,-1.00
2018-02-24T01:39:50.975Z,-0.90
2018-02-24T01:42:20.126Z,-0.90
2018-02-24T01:44:48.736Z,-0.90
2018-02-24T01:47:17.582Z,-0.90
2018-02-24T01:49:51.981Z,-0.90
2018-02-24T01:52:22.219Z,-0.90
2018-02-24T01:54:51.283Z,-0.80
2018-02-24T01:57:21.166Z,-0.80
2018-02-24T01:59:52.795Z,-0.80
2018-02-24T02:02:20.853Z,-0.80
2018-02-24T02:04:49.182Z,-1.00
2018-02-24T02:07:20.263Z,-0.80
2018-02-24T02:09:51.159Z,-0.80
2018-02-24T02:12:19.838Z,-0.70
2018-02-24T02:14:48.462Z,-0.80
2018-02-24T02:17:20.225Z,-0.80
2018-02-24T02:19:50.987Z,-0.70
2018-02-24T02:22:21.209Z,-0.80
2018-02-24T02:24:49.539Z,-0.80
2018-02-24T02:27:19.041Z,-0.80
2018-02-24T02:29:51.117Z,-0.80
2018-02-24T02:32:19.718Z,-0.80
2018-02-24T02:34:49.118Z,-0.80
2018-02-24T02:37:20.005Z,-0.80
2018-02-24T02:39:50.377Z,-1.90
2018-02-24T02:42:25.775Z,-0.80
2018-02-24T02:44:56.015Z,-0.90
2018-02-24T02:47:23.676Z,-0.90
2018-02-24T02:49:53.192Z,-0.90
2018-02-24T02:52:22.562Z,-0.80
2018-02-24T02:54:58.371Z,-0.80
2018-02-24T02:57:26.359Z,-0.90
2018-02-24T02:59:54.724Z,-0.30
2018-02-24T03:02:23.446Z,-1.00
2018-02-24T03:04:51.448Z,-0.90
2018-02-24T03:07:20.357Z,-1.00
2018-02-24T03:09:51.187Z,-1.10
2018-02-24T03:12:22.027Z,-1.10
2018-02-24T03:14:51.266Z,-1.00
2018-02-24T03:17:22.839Z,-1.00
2018-02-24T03:19:50.363Z,-1.00
2018-02-24T03:22:19.261Z,-1.00
2018-02-24T03:24:49.418Z,-1.00
2018-02-24T03:27:17.420Z,-1.40
2018-02-24T03:29:45.419Z,-1.00
2018-02-24T03:32:13.076Z,-1.00
2018-02-24T03:34:40.754Z,-1.10
2018-02-24T03:37:08.374Z,-1.10
2018-02-24T03:39:40.819Z,-1.00
2018-02-24T03:42:08.435Z,-1.10
2018-02-24T03:44:36.702Z,-1.00
2018-02-24T03:47:05.055Z,-1.00
2018-02-24T03:49:35.020Z,-0.90
2018-02-24T03:52:02.612Z,-0.90
2018-02-24T03:54:31.207Z,-0.90
2018-02-24T03:56:59.714Z,-1.10
2018-02-24T03:59:34.743Z,-1.10
2018-02-24T04:02:05.196Z,-1.00
2018-02-24T04:04:34.098Z,-1.00
2018-02-24T04:07:03.090Z,-0.90
2018-02-24T04:09:31.948Z,-0.90
2018-02-24T04:12:02.351Z,-1.10
2018-02-24T04:14:32.094Z,-1.00
2018-02-24T04:17:01.654Z,-0.90
2018-02-24T04:19:34.735Z,-1.00
2018-02-24T04:22:04.085Z,-1.00
2018-02-24T04:24:36.877Z,-1.00
2018-02-24T04:27:04.845Z,-1.00
2018-02-24T04:29:35.547Z,-1.00
2018-02-24T04:37:15.638Z,-1.00
2018-02-24T04:39:46.214Z,-1.10
2018-02-24T04:42:14.499Z,-1.00
2018-02-24T04:44:49.327Z,-1.00
2018-02-24T04:47:23.721Z,-0.20
2018-02-24T04:49:53.861Z,-1.00
2018-02-24T04:52:24.643Z,-1.00
2018-02-24T04:54:53.170Z,-1.10
2018-02-24T04:57:25.812Z,-1.00
2018-02-24T05:00:02.063Z,-1.00
2018-02-24T05:02:50.426Z,-1.00
2018-02-24T05:07:59.558Z,-1.10
2018-02-24T05:10:28.591Z,-0.90
2018-02-24T05:12:57.294Z,-1.10
2018-02-24T05:15:26.844Z,-1.30
2018-02-24T05:18:03.969Z,-1.30
2018-02-24T05:20:39.796Z,-1.40
2018-02-24T05:23:15.884Z,-1.30
2018-02-24T05:25:49.172Z,-1.30
2018-02-24T05:28:20.226Z,-1.20
2018-02-24T05:30:50.377Z,-1.20
2018-02-24T05:33:29.312Z,-1.30
2018-02-24T05:35:58.363Z,-1.30
2018-02-24T05:38:28.073Z,-1.30
2018-02-24T05:40:57.077Z,-1.40
2018-02-24T05:43:27.685Z,-1.30
2018-02-24T05:45:57.291Z,-1.30
2018-02-24T05:48:25.165Z,-1.40
2018-02-24T05:50:57.449Z,-1.30
2018-02-24T05:53:25.587Z,-1.50
2018-02-24T05:55:57.120Z,-1.40
2018-02-24T05:58:35.600Z,-1.50
2018-02-24T06:01:03.607Z,-1.60
2018-02-24T06:03:32.612Z,-1.60
2018-02-24T06:06:05.596Z,-1.60
2018-02-24T06:08:39.262Z,1.50
2018-02-24T06:11:15.507Z,-1.70
2018-02-24T06:13:49.317Z,-1.70
2018-02-24T06:16:21.483Z,-1.60
2018-02-24T06:18:59.402Z,-1.50
2018-02-24T06:21:29.107Z,-1.70
2018-02-24T06:23:58.244Z,-1.70
2018-02-24T06:26:28.674Z,-1.70
2018-02-24T06:28:58.071Z,-1.90
2018-02-24T06:31:32.575Z,-1.90
2018-02-24T06:34:13.945Z,-1.80
2018-02-24T06:36:45.360Z,-1.80
2018-02-24T06:39:15.457Z,-1.70
2018-02-24T06:41:43.502Z,-1.70
2018-02-24T06:44:11.460Z,-1.70
2018-02-24T06:46:45.073Z,-1.60
2018-02-24T06:49:20.590Z,-1.60
2018-02-24T06:51:49.394Z,-1.50
2018-02-24T06:54:18.429Z,-1.40
2018-02-24T06:56:48.905Z,-1.40
2018-02-24T06:59:20.030Z,-1.50
2018-02-24T07:01:55.533Z,-1.60
2018-02-24T07:04:26.731Z,-1.70
2018-02-24T07:09:48.810Z,-1.70
2018-02-24T07:12:17.340Z,-1.70
2018-02-24T07:14:46.153Z,-1.70
2018-02-24T07:17:14.896Z,-1.90
2018-02-24T07:19:43.900Z,-1.90
2018-02-24T07:22:12.444Z,-1.80
2018-02-24T07:24:41.716Z,-1.80
2018-02-24T07:27:15.983Z,-1.80
2018-02-24T07:29:46.526Z,-2.00
2018-02-24T07:32:19.471Z,-1.80
2018-02-24T07:34:51.975Z,-1.80
2018-02-24T07:37:20.406Z,-1.70
2018-02-24T07:39:48.038Z,-1.70
2018-02-24T07:42:27.215Z,-2.00
2018-02-24T07:45:01.670Z,-1.80
2018-02-24T07:47:38.173Z,-1.80
2018-02-24T07:50:11.201Z,-1.70
2018-02-24T07:52:47.651Z,-1.80
2018-02-24T07:55:16.354Z,-1.90
2018-02-24T07:57:48.792Z,-1.80
2018-02-24T08:00:16.430Z,-1.80
2018-02-24T08:02:44.986Z,-2.00
2018-02-24T08:05:14.962Z,-2.20
2018-02-24T08:07:55.024Z,-2.10
2018-02-24T08:10:23.454Z,-2.10
2018-02-24T08:12:52.196Z,-1.90
2018-02-24T08:15:20.897Z,-2.00
2018-02-24T08:17:48.628Z,-1.90
2018-02-24T08:20:16.318Z,-1.80
2018-02-24T08:22:49.875Z,-1.70
2018-02-24T08:25:23.245Z,-1.60
2018-02-24T08:28:02.954Z,-1.40
2018-02-24T08:30:35.005Z,-1.30
2018-02-24T08:33:02.805Z,-1.30
2018-02-24T08:35:30.865Z,-1.10
2018-02-24T08:40:43.832Z,-1.20
2018-02-24T08:43:13.284Z,-1.20
2018-02-24T08:48:25.445Z,-0.90
2018-02-24T08:51:06.588Z,-0.90
2018-02-24T08:53:34.693Z,-1.00
2018-02-24T08:56:03.067Z,-0.80
2018-02-24T08:58:31.329Z,-0.90
2018-02-24T09:01:00.814Z,-0.90
2018-02-24T09:03:28.685Z,-0.90
2018-02-24T09:05:57.352Z,-0.90
2018-02-24T09:08:25.551Z,-1.00
2018-02-24T09:10:56.510Z,-1.10
2018-02-24T09:13:30.067Z,-1.10
2018-02-24T09:16:02.438Z,-1.10
2018-02-24T09:18:32.200Z,-1.10
2018-02-24T09:21:00.843Z,-1.00
2018-02-24T09:23:33.368Z,-1.10
2018-02-24T09:26:01.293Z,-1.10
2018-02-24T09:28:30.889Z,-1.00
2018-02-24T09:31:04.664Z,-0.90
2018-02-24T09:33:33.127Z,-1.10
2018-02-24T09:36:15.523Z,-1.20
2018-02-24T09:38:52.555Z,-1.20
2018-02-24T09:41:22.991Z,-1.10
2018-02-24T09:46:35.554Z,-1.40
2018-02-24T09:49:06.510Z,-1.30
2018-02-24T09:51:34.242Z,-1.10
2018-02-24T09:56:49.675Z,-1.00
2018-02-24T09:59:19.044Z,-1.00
2018-02-24T10:01:49.139Z,-0.90
2018-02-24T10:04:20.024Z,-0.70
2018-02-24T10:06:50.123Z,-0.80
2018-02-24T10:09:21.893Z,-0.60
2018-02-24T10:11:53.725Z,-0.60
2018-02-24T10:14:21.307Z,-0.60
2018-02-24T10:16:49.534Z,-0.40
2018-02-24T10:19:16.999Z,-0.50
2018-02-24T10:21:44.460Z,-0.70
2018-02-24T10:24:11.922Z,-1.20
2018-02-24T10:26:39.386Z,-0.70
2018-02-24T10:29:07.234Z,-0.80
2018-02-24T10:31:35.476Z,-0.90
2018-02-24T10:34:03.696Z,-0.90
2018-02-24T10:36:31.143Z,-0.90
2018-02-24T10:38:58.595Z,-0.70
2018-02-24T10:41:27.557Z,-0.90
2018-02-24T10:43:55.035Z,-0.90
2018-02-24T10:46:22.496Z,-0.90
2018-02-24T10:48:55.758Z,-1.00
2018-02-24T10:51:23.252Z,-1.10
2018-02-24T10:53:50.789Z,-1.10
2018-02-24T10:56:19.158Z,-0.90
2018-02-24T10:58:46.678Z,-0.90
2018-02-24T11:01:14.969Z,-1.20
2018-02-24T11:03:42.458Z,-1.20
2018-02-24T11:06:09.978Z,-1.20
2018-02-24T11:08:37.537Z,-1.00
2018-02-24T11:11:05.066Z,-0.90
2018-02-24T11:13:32.586Z,-0.90
2018-02-24T11:16:00.105Z,-1.00
2018-02-24T11:18:27.697Z,-1.00
2018-02-24T11:20:55.196Z,-0.80
2018-02-24T11:23:22.685Z,-0.70
2018-02-24T11:25:50.228Z,-0.60
2018-02-24T11:28:17.678Z,-0.70
2018-02-24T11:30:45.134Z,-0.50
2018-02-24T11:33:13.373Z,-0.60
2018-02-24T11:35:41.240Z,-0.70
2018-02-24T11:38:09.464Z,-0.70
2018-02-24T11:40:37.712Z,-0.80
2018-02-24T11:43:05.208Z,-0.80
2018-02-24T11:45:33.424Z,-0.70
2018-02-24T11:48:01.159Z,-0.70
2018-02-24T11:50:28.613Z,-0.70
2018-02-24T11:52:56.460Z,-0.70
2018-02-24T11:55:24.811Z,-0.50
2018-02-24T11:57:52.270Z,-0.60
2018-02-24T12:00:19.730Z,-0.40
2018-02-24T12:02:47.183Z,-0.30
2018-02-24T12:05:14.650Z,-0.40
2018-02-24T12:07:42.113Z,-0.50
2018-02-24T12:10:09.565Z,-0.30
2018-02-24T12:12:37.021Z,-0.40
2018-02-24T12:15:04.483Z,-0.40
2018-02-24T12:17:32.706Z,0.00
2018-02-24T12:20:00.165Z,0.00
2018-02-24T12:22:27.666Z,0.10
2018-02-24T12:24:55.277Z,0.00
2018-02-24T12:27:22.726Z,-0.20
2018-02-24T12:29:50.177Z,-0.20
2018-02-24T12:32:17.634Z,-0.10
2018-02-24T12:34:45.107Z,-0.10
2018-02-24T12:37:13.322Z,0.10
2018-02-24T12:39:40.778Z,0.40
2018-02-24T12:42:08.251Z,0.20
2018-02-24T12:44:36.483Z,0.00
2018-02-24T12:47:04.144Z,-0.10
2018-02-24T12:49:31.670Z,0.00
2018-02-24T12:51:59.431Z,0.00
2018-02-24T12:54:27.092Z,0.10
2018-02-24T12:56:54.599Z,0.10
2018-02-24T12:59:22.056Z,0.10
2018-02-24T13:01:49.515Z,-0.10
2018-02-24T13:04:16.969Z,0.10
2018-02-24T13:06:44.420Z,0.20
2018-02-24T13:09:11.903Z,0.20
2018-02-24T13:11:39.353Z,0.30
2018-02-24T13:14:06.816Z,0.30
2018-02-24T13:16:34.266Z,0.20
2018-02-24T13:19:01.723Z,0.20
2018-02-24T13:21:29.175Z,0.40
2018-02-24T13:23:56.630Z,0.40
2018-02-24T13:26:24.081Z,0.40
2018-02-24T13:28:51.542Z,0.30
2018-02-24T13:31:18.998Z,0.20
2018-02-24T13:33:46.473Z,0.10
2018-02-24T13:36:14.724Z,0.10
2018-02-24T13:38:42.950Z,-0.10
2018-02-24T13:41:10.411Z,0.00
2018-02-24T13:43:37.865Z,0.20
2018-02-24T13:46:05.315Z,0.00
2018-02-24T13:48:32.765Z,0.10
2018-02-24T13:51:01.003Z,0.20
2018-02-24T13:53:28.445Z,0.10
2018-02-24T13:55:55.901Z,0.00
2018-02-24T13:58:23.364Z,-0.20
2018-02-24T14:00:50.827Z,-0.10
2018-02-24T14:03:18.296Z,0.00
2018-02-24T14:05:45.729Z,0.10
2018-02-24T14:08:13.201Z,0.00
2018-02-24T14:10:40.644Z,0.00
2018-02-24T14:13:08.115Z,0.10
2018-02-24T14:15:35.544Z,0.00
2018-02-24T14:18:03.010Z,0.00
2018-02-24T14:20:30.475Z,0.30
2018-02-24T14:22:57.926Z,0.30
2018-02-24T14:25:25.378Z,0.50
2018-02-24T14:27:55.916Z,0.60
2018-02-24T14:30:23.377Z,0.40
2018-02-24T14:32:50.832Z,0.40
2018-02-24T14:35:18.701Z,0.40
2018-02-24T14:37:46.191Z,0.30
2018-02-24T14:40:14.425Z,0.50
2018-02-24T14:42:42.646Z,0.30
2018-02-24T14:45:10.879Z,0.40
2018-02-24T14:47:38.335Z,0.30
2018-02-24T14:50:06.673Z,0.30
2018-02-24T14:52:34.116Z,0.30
2018-02-24T14:55:01.578Z,0.40
2018-02-24T14:57:29.789Z,0.20
2018-02-24T14:59:57.245Z,0.20
2018-02-24T15:02:24.699Z,0.30
2018-02-24T15:04:52.155Z,0.40
2018-02-24T15:07:19.610Z,0.30
2018-02-24T15:09:47.803Z,0.40
2018-02-24T15:12:15.250Z,0.40
2018-02-24T15:14:43.476Z,0.60
2018-02-24T15:17:11.712Z,0.60
2018-02-24T15:19:39.199Z,0.50
2018-02-24T15:22:06.694Z,0.50
2018-02-24T15:24:34.155Z,0.50
2018-02-24T15:27:01.611Z,0.50
2018-02-24T15:29:29.063Z,0.60
2018-02-24T15:31:56.527Z,0.50
2018-02-24T15:34:23.979Z,0.40
2018-02-24T15:36:51.469Z,0.50
2018-02-24T15:39:18.979Z,0.40
2018-02-24T15:41:46.843Z,0.40
2018-02-24T15:44:15.083Z,0.60
2018-02-24T15:46:43.367Z,0.60
2018-02-24T15:49:10.858Z,0.50
2018-02-24T15:51:38.353Z,0.60
2018-02-24T15:54:05.861Z,0.60
2018-02-24T15:56:33.359Z,0.40
2018-02-24T15:59:00.822Z,0.30
2018-02-24T16:01:29.033Z,-0.10
2018-02-24T16:03:57.268Z,0.00
2018-02-24T16:06:24.733Z,-0.10
2018-02-24T16:08:52.953Z,0.00
2018-02-24T16:11:21.180Z,0.00
2018-02-24T16:13:48.636Z,-0.10
2018-02-24T16:16:16.858Z,-0.10
2018-02-24T16:18:45.069Z,-0.10
2018-02-24T16:21:12.547Z,-0.20
2018-02-24T16:23:39.998Z,-0.10
2018-02-24T16:26:07.456Z,-0.30
2018-02-24T16:28:34.927Z,-0.40
2018-02-24T16:31:02.387Z,-0.60
2018-02-24T16:33:29.842Z,-0.50
2018-02-24T16:35:57.304Z,-0.70
2018-02-24T16:38:25.581Z,-0.60
2018-02-24T16:40:53.039Z,-0.40
2018-02-24T16:43:20.894Z,-0.50
2018-02-24T16:45:48.359Z,-0.50
2018-02-24T16:48:15.826Z,-0.70
2018-02-24T16:50:43.286Z,-0.70
2018-02-24T16:53:11.523Z,-0.60
2018-02-24T16:55:38.983Z,-0.60
2018-02-24T16:58:06.444Z,-0.50
2018-02-24T17:00:33.904Z,-0.60
2018-02-24T17:03:01.371Z,-0.60
2018-02-24T17:05:28.831Z,-0.80
2018-02-24T17:07:56.319Z,-0.90
2018-02-24T17:10:23.781Z,-0.90
2018-02-24T17:12:51.228Z,-0.90
2018-02-24T17:15:19.490Z,-0.90
2018-02-24T17:17:47.015Z,-1.00
2018-02-24T17:20:14.543Z,-0.90
2018-02-24T17:22:42.055Z,-0.90
2018-02-24T17:25:09.613Z,-1.00
2018-02-24T17:27:37.051Z,-1.10
2018-02-24T17:30:04.540Z,-1.20
2018-02-24T17:32:32.086Z,-1.10
2018-02-24T17:34:59.600Z,-0.90
2018-02-24T17:37:27.102Z,-1.00
2018-02-24T17:39:54.621Z,-0.90
2018-02-24T17:42:22.946Z,-0.80
2018-02-24T17:44:51.228Z,-1.00
2018-02-24T17:47:20.422Z,-1.00
2018-02-24T17:49:48.681Z,-0.90
2018-02-24T17:52:16.186Z,-1.00
2018-02-24T17:54:43.719Z,-0.80
2018-02-24T17:57:12.000Z,-0.70
2018-02-24T17:59:40.250Z,-0.70
2018-02-24T18:02:07.768Z,-0.70
2018-02-24T18:04:35.234Z,-0.80
2018-02-24T18:07:02.693Z,-0.80
2018-02-24T18:09:30.152Z,-0.60
2018-02-24T18:11:57.616Z,-0.70
2018-02-24T18:14:25.080Z,-0.60
2018-02-24T18:16:52.537Z,-0.70
2018-02-24T18:19:19.998Z,-0.60
2018-02-24T18:21:47.461Z,-0.60
2018-02-24T18:24:14.927Z,-0.60
2018-02-24T18:26:42.384Z,-0.60
2018-02-24T18:29:09.848Z,-0.60
2018-02-24T18:31:37.346Z,-0.80
2018-02-24T18:34:05.533Z,-0.90
2018-02-24T18:36:33.202Z,-1.00
2018-02-24T18:39:00.654Z,-0.80
2018-02-24T18:41:28.122Z,-0.90
2018-02-24T18:43:56.363Z,-0.90
2018-02-24T18:46:23.820Z,-0.80
2018-02-24T18:48:51.287Z,-1.00
2018-02-24T18:51:18.811Z,-1.00
2018-02-24T18:53:47.047Z,-1.30
2018-02-24T18:56:14.507Z,-1.30
2018-02-24T18:58:41.980Z,-1.30
2018-02-24T19:01:09.447Z,-1.30
2018-02-24T19:03:36.912Z,-1.40
2018-02-24T19:06:05.136Z,-1.50
2018-02-24T19:08:32.607Z,-1.50
2018-02-24T19:11:00.060Z,-1.50
2018-02-24T19:13:28.293Z,-1.40
2018-02-24T19:15:55.776Z,-1.50
2018-02-24T19:18:23.236Z,-1.40
2018-02-24T19:20:50.698Z,-1.50
2018-02-24T19:23:18.920Z,-1.40
2018-02-24T19:25:47.152Z,-1.40
2018-02-24T19:28:15.383Z,-1.30
2018-02-24T19:30:43.041Z,-1.40
2018-02-24T19:33:11.261Z,-1.50
2018-02-24T19:35:39.502Z,-1.50
2018-02-24T19:38:06.965Z,-1.60
2018-02-24T19:40:34.437Z,-1.60
2018-02-24T19:43:01.903Z,-1.50
2018-02-24T19:45:29.783Z,-1.50
2018-02-24T19:47:57.243Z,-1.60
2018-02-24T19:50:25.105Z,-1.70
2018-02-24T19:52:52.566Z,-1.70
2018-02-24T19:55:20.032Z,-1.60
2018-02-24T19:57:47.487Z,-1.60
2018-02-24T20:00:14.954Z,-1.70
2018-02-24T20:02:42.408Z,-1.60
2018-02-24T20:05:09.879Z,-1.60
2018-02-24T20:07:38.115Z,-1.60
2018-02-24T20:10:05.581Z,-1.60
2018-02-24T20:12:33.050Z,-1.70
2018-02-24T20:15:00.509Z,-1.90
2018-02-24T20:17:27.967Z,-1.80
2018-02-24T20:19:55.436Z,-2.00
2018-02-24T20:22:23.652Z,-2.00
2018-02-24T20:24:51.118Z,-2.00
2018-02-24T20:27:18.581Z,-2.00
2018-02-24T20:29:46.058Z,-2.20
2018-02-24T20:32:13.516Z,-2.20
2018-02-24T20:34:40.970Z,-2.10
2018-02-24T20:37:08.429Z,-2.10
2018-02-24T20:39:36.916Z,-2.40
2018-02-24T20:42:04.368Z,-2.50
2018-02-24T20:44:31.817Z,-2.60
2018-02-24T20:46:59.274Z,-2.50
2018-02-24T20:49:27.135Z,-2.60
2018-02-24T20:51:54.642Z,-2.60
2018-02-24T20:54:22.063Z,-2.50
2018-02-24T20:56:49.525Z,-2.40
2018-02-24T20:59:16.988Z,-2.30
2018-02-24T21:01:44.442Z,-2.40
2018-02-24T21:04:11.915Z,-2.30
2018-02-24T21:06:40.151Z,-2.30
2018-02-24T21:09:07.604Z,-2.40
2018-02-24T21:11:35.069Z,-2.50
2018-02-24T21:14:02.528Z,-2.50
2018-02-24T21:16:29.980Z,-2.50
2018-02-24T21:18:58.198Z,-2.70
2018-02-24T21:21:26.421Z,-2.80
2018-02-24T21:23:53.870Z,-2.80
2018-02-24T21:26:22.122Z,-2.80
2018-02-24T21:28:49.570Z,-2.80
2018-02-24T21:31:17.023Z,-2.80
2018-02-24T21:33:45.238Z,-2.90
2018-02-24T21:36:13.452Z,-3.00
2018-02-24T21:38:41.691Z,-3.00
2018-02-24T21:41:09.150Z,-3.20
2018-02-24T21:43:36.613Z,-3.60
2018-02-24T21:46:04.082Z,-3.00
2018-02-24T21:48:31.538Z,-3.00
2018-02-24T21:50:58.993Z,-2.90
2018-02-24T21:53:27.598Z,-3.10
2018-02-24T21:55:55.830Z,-3.00
2018-02-24T21:58:23.295Z,-3.00
2018-02-24T22:00:50.759Z,-3.20
2018-02-24T22:03:18.218Z,-3.20
2018-02-24T22:05:45.677Z,-3.20
2018-02-24T22:08:13.135Z,-3.20
2018-02-24T22:10:40.593Z,-3.20
2018-02-24T22:13:08.050Z,-3.20
2018-02-24T22:15:35.509Z,-3.20
2018-02-24T22:18:02.970Z,-3.10
2018-02-24T22:20:30.480Z,-3.10
2018-02-24T22:22:57.942Z,-3.30
2018-02-24T22:25:25.406Z,-3.30
2018-02-24T22:27:52.854Z,-3.20
2018-02-24T22:30:21.092Z,-3.40
2018-02-24T22:32:49.318Z,-3.30
2018-02-24T22:35:16.780Z,-3.30
2018-02-24T22:37:44.240Z,-3.20
2018-02-24T22:40:11.702Z,-3.20
2018-02-24T22:42:39.150Z,-3.40
2018-02-24T22:45:06.604Z,-3.30
2018-02-24T22:47:39.706Z,-3.40
2018-02-24T22:50:07.156Z,-3.50
2018-02-24T22:52:34.610Z,-3.90
2018-02-24T22:55:02.477Z,-3.50
2018-02-24T22:57:29.921Z,-3.40
2018-02-24T22:59:57.385Z,-3.40
2018-02-24T23:02:24.835Z,-3.60
2018-02-24T23:04:52.311Z,-3.60
2018-02-24T23:07:19.759Z,-3.70
2018-02-24T23:09:47.209Z,-3.90
2018-02-24T23:12:14.674Z,-3.90
2018-02-24T23:14:42.546Z,-3.70
2018-02-24T23:17:09.997Z,-3.60
2018-02-24T23:19:38.214Z,-3.60
2018-02-24T23:22:06.423Z,-3.60
2018-02-24T23:24:33.888Z,-3.70
2018-02-24T23:27:01.355Z,-3.80
2018-02-24T23:29:28.809Z,-3.80
2018-02-24T23:31:56.266Z,-3.70
2018-02-24T23:34:23.724Z,-3.70
2018-02-24T23:36:51.182Z,-3.80
2018-02-24T23:39:18.649Z,-3.90
2018-02-24T23:41:46.098Z,-4.10
2018-02-24T23:44:13.556Z,-4.10
2018-02-24T23:46:41.016Z,-4.20
2018-02-24T23:49:08.467Z,-4.00
2018-02-24T23:51:35.935Z,-4.50
2018-02-24T23:54:04.897Z,-4.30
2018-02-24T23:56:32.343Z,-4.30
2018-02-24T23:58:59.806Z,-4.30
